Terminal Aerodrome Forecast
Issued by NWS

Home | Current Version | Previous Version | Text Only | Print | Product List | Glossary On
Versions: 1 2 3 4 5 6 7 8 9 10 11 12 13 14 15 16 17 18 19 20 21 22 23 24 25 26 27 28 29 30
000
FTUS41 KOKX 040100 AAA
TAFGON
TAF AMD
KGON 040104Z 0401/0424 17011KT 1SM -SN BR BKN005 OVC010
     FM040200 17011KT 2SM -FZRAPLSN BKN004 OVC010
     FM040300 20010KT 1SM RA OVC004
     FM040700 23010KT 3SM -SHRA BR OVC004 WS020/25055KT
     FM041200 26007KT 3SM -RA BR OVC006
     FM041700 26007KT 5SM -RA BR BKN008 BKN050=

USA.gov is the U.S. government's official web portal to all federal, state and local government web resources and services.